sensor_id;sensor_type;location;lat;lon;timestamp;P1;durP1;ratioP1;P2;durP2;ratioP2
47866;SDS011;33628;50.806;11.586;2022-12-07T00:01:45;11.95;;;6.38;;
47866;SDS011;33628;50.806;11.586;2022-12-07T00:04:13;12.10;;;6.35;;
47866;SDS011;33628;50.806;11.586;2022-12-07T00:06:40;10.68;;;6.47;;
47866;SDS011;33628;50.806;11.586;2022-12-07T00:09:09;9.02;;;6.05;;
47866;SDS011;33628;50.806;11.586;2022-12-07T00:11:37;13.15;;;6.15;;
47866;SDS011;33628;50.806;11.586;2022-12-07T00:14:06;7.93;;;5.28;;
47866;SDS011;33628;50.806;11.586;2022-12-07T00:16:34;9.90;;;5.97;;
47866;SDS011;33628;50.806;11.586;2022-12-07T00:19:02;8.02;;;5.53;;
47866;SDS011;33628;50.806;11.586;2022-12-07T00:21:30;8.85;;;5.43;;
47866;SDS011;33628;50.806;11.586;2022-12-07T00:23:58;8.63;;;5.50;;
47866;SDS011;33628;50.806;11.586;2022-12-07T00:26:25;9.57;;;5.30;;
47866;SDS011;33628;50.806;11.586;2022-12-07T00:28:54;8.80;;;5.97;;
47866;SDS011;33628;50.806;11.586;2022-12-07T00:31:23;8.43;;;4.97;;
47866;SDS011;33628;50.806;11.586;2022-12-07T00:33:51;7.97;;;4.90;;
47866;SDS011;33628;50.806;11.586;2022-12-07T00:36:19;8.23;;;5.00;;
47866;SDS011;33628;50.806;11.586;2022-12-07T00:38:47;8.02;;;4.10;;
47866;SDS011;33628;50.806;11.586;2022-12-07T00:41:14;8.05;;;4.97;;
47866;SDS011;33628;50.806;11.586;2022-12-07T00:43:42;8.85;;;4.53;;
47866;SDS011;33628;50.806;11.586;2022-12-07T00:46:11;8.02;;;4.70;;
47866;SDS011;33628;50.806;11.586;2022-12-07T00:48:39;6.88;;;4.32;;
47866;SDS011;33628;50.806;11.586;2022-12-07T00:51:06;7.95;;;4.88;;
47866;SDS011;33628;50.806;11.586;2022-12-07T00:53:37;7.57;;;4.53;;
47866;SDS011;33628;50.806;11.586;2022-12-07T00:56:05;9.55;;;4.22;;
47866;SDS011;33628;50.806;11.586;2022-12-07T00:58:32;8.00;;;4.72;;
47866;SDS011;33628;50.806;11.586;2022-12-07T01:00:59;6.22;;;4.00;;
47866;SDS011;33628;50.806;11.586;2022-12-07T01:03:27;7.35;;;4.65;;
47866;SDS011;33628;50.806;11.586;2022-12-07T01:05:54;5.93;;;3.97;;
47866;SDS011;33628;50.806;11.586;2022-12-07T01:08:21;8.18;;;4.80;;
47866;SDS011;33628;50.806;11.586;2022-12-07T01:10:56;8.80;;;4.50;;
47866;SDS011;33628;50.806;11.586;2022-12-07T01:13:24;8.27;;;4.88;;
47866;SDS011;33628;50.806;11.586;2022-12-07T01:15:50;9.95;;;5.35;;
47866;SDS011;33628;50.806;11.586;2022-12-07T01:18:17;8.45;;;5.20;;
47866;SDS011;33628;50.806;11.586;2022-12-07T01:20:43;10.93;;;5.40;;
47866;SDS011;33628;50.806;11.586;2022-12-07T01:23:10;9.43;;;5.60;;
47866;SDS011;33628;50.806;11.586;2022-12-07T01:25:36;9.82;;;5.40;;
47866;SDS011;33628;50.806;11.586;2022-12-07T01:28:04;6.78;;;4.93;;
47866;SDS011;33628;50.806;11.586;2022-12-07T01:30:31;8.93;;;5.18;;
47866;SDS011;33628;50.806;11.586;2022-12-07T01:32:58;8.27;;;5.10;;
47866;SDS011;33628;50.806;11.586;2022-12-07T01:35:24;9.07;;;4.70;;
47866;SDS011;33628;50.806;11.586;2022-12-07T01:37:51;8.25;;;4.72;;
47866;SDS011;33628;50.806;11.586;2022-12-07T01:40:17;9.88;;;5.45;;
47866;SDS011;33628;50.806;11.586;2022-12-07T01:42:44;14.43;;;5.18;;
47866;SDS011;33628;50.806;11.586;2022-12-07T01:45:37;8.57;;;4.95;;
47866;SDS011;33628;50.806;11.586;2022-12-07T01:48:05;10.68;;;4.88;;
47866;SDS011;33628;50.806;11.586;2022-12-07T01:50:32;6.75;;;4.93;;
47866;SDS011;33628;50.806;11.586;2022-12-07T01:53:00;8.85;;;4.60;;
47866;SDS011;33628;50.806;11.586;2022-12-07T01:55:29;7.07;;;4.40;;
47866;SDS011;33628;50.806;11.586;2022-12-07T01:57:55;7.38;;;4.60;;
47866;SDS011;33628;50.806;11.586;2022-12-07T02:00:23;7.32;;;4.22;;
47866;SDS011;33628;50.806;11.586;2022-12-07T02:02:53;9.77;;;5.00;;
47866;SDS011;33628;50.806;11.586;2022-12-07T02:05:21;9.60;;;4.97;;
47866;SDS011;33628;50.806;11.586;2022-12-07T02:07:49;10.02;;;4.50;;
47866;SDS011;33628;50.806;11.586;2022-12-07T02:10:18;7.80;;;4.65;;
47866;SDS011;33628;50.806;11.586;2022-12-07T02:12:46;7.40;;;4.50;;
47866;SDS011;33628;50.806;11.586;2022-12-07T02:15:15;10.23;;;4.68;;
47866;SDS011;33628;50.806;11.586;2022-12-07T02:17:44;7.60;;;4.32;;
47866;SDS011;33628;50.806;11.586;2022-12-07T02:20:23;8.13;;;4.75;;
47866;SDS011;33628;50.806;11.586;2022-12-07T02:25:53;7.80;;;4.68;;
47866;SDS011;33628;50.806;11.586;2022-12-07T02:28:26;7.90;;;4.03;;
47866;SDS011;33628;50.806;11.586;2022-12-07T02:30:58;6.75;;;4.50;;
47866;SDS011;33628;50.806;11.586;2022-12-07T02:33:29;6.22;;;4.03;;
47866;SDS011;33628;50.806;11.586;2022-12-07T02:35:59;9.27;;;4.38;;
47866;SDS011;33628;50.806;11.586;2022-12-07T02:38:29;8.38;;;4.15;;
47866;SDS011;33628;50.806;11.586;2022-12-07T02:41:00;7.63;;;4.05;;
47866;SDS011;33628;50.806;11.586;2022-12-07T02:43:31;8.55;;;4.75;;
47866;SDS011;33628;50.806;11.586;2022-12-07T02:46:02;7.40;;;4.45;;
47866;SDS011;33628;50.806;11.586;2022-12-07T02:48:32;8.25;;;4.60;;
47866;SDS011;33628;50.806;11.586;2022-12-07T02:50:59;8.48;;;5.13;;
47866;SDS011;33628;50.806;11.586;2022-12-07T02:53:30;8.23;;;5.00;;
47866;SDS011;33628;50.806;11.586;2022-12-07T02:55:58;7.60;;;4.47;;
47866;SDS011;33628;50.806;11.586;2022-12-07T02:58:29;8.65;;;4.57;;
47866;SDS011;33628;50.806;11.586;2022-12-07T03:01:01;8.07;;;4.82;;
47866;SDS011;33628;50.806;11.586;2022-12-07T03:03:36;7.78;;;4.90;;
47866;SDS011;33628;50.806;11.586;2022-12-07T03:06:06;9.27;;;5.32;;
47866;SDS011;33628;50.806;11.586;2022-12-07T03:08:42;8.45;;;5.43;;
47866;SDS011;33628;50.806;11.586;2022-12-07T03:11:14;9.73;;;5.43;;
47866;SDS011;33628;50.806;11.586;2022-12-07T03:13:45;10.73;;;4.60;;
47866;SDS011;33628;50.806;11.586;2022-12-07T03:16:16;8.88;;;5.43;;
47866;SDS011;33628;50.806;11.586;2022-12-07T03:18:45;7.97;;;4.80;;
47866;SDS011;33628;50.806;11.586;2022-12-07T03:21:14;7.40;;;4.80;;
47866;SDS011;33628;50.806;11.586;2022-12-07T03:23:43;10.65;;;4.80;;
47866;SDS011;33628;50.806;11.586;2022-12-07T03:26:13;6.65;;;4.35;;
47866;SDS011;33628;50.806;11.586;2022-12-07T03:28:41;6.70;;;4.75;;
47866;SDS011;33628;50.806;11.586;2022-12-07T03:31:10;7.10;;;4.30;;
47866;SDS011;33628;50.806;11.586;2022-12-07T03:33:43;6.75;;;4.38;;
47866;SDS011;33628;50.806;11.586;2022-12-07T03:36:13;8.30;;;4.22;;
47866;SDS011;33628;50.806;11.586;2022-12-07T03:38:42;6.05;;;3.97;;
47866;SDS011;33628;50.806;11.586;2022-12-07T03:41:12;6.55;;;4.47;;
47866;SDS011;33628;50.806;11.586;2022-12-07T03:43:42;8.68;;;4.68;;
47866;SDS011;33628;50.806;11.586;2022-12-07T03:46:12;9.23;;;4.40;;
47866;SDS011;33628;50.806;11.586;2022-12-07T03:48:49;7.50;;;4.20;;
47866;SDS011;33628;50.806;11.586;2022-12-07T03:51:21;6.43;;;4.13;;
47866;SDS011;33628;50.806;11.586;2022-12-07T03:53:52;6.45;;;4.40;;
47866;SDS011;33628;50.806;11.586;2022-12-07T03:56:25;6.05;;;3.83;;
47866;SDS011;33628;50.806;11.586;2022-12-07T03:58:53;6.50;;;3.65;;
47866;SDS011;33628;50.806;11.586;2022-12-07T04:01:22;6.53;;;3.75;;
47866;SDS011;33628;50.806;11.586;2022-12-07T04:03:48;6.60;;;4.40;;
47866;SDS011;33628;50.806;11.586;2022-12-07T04:06:15;6.07;;;3.78;;
47866;SDS011;33628;50.806;11.586;2022-12-07T04:08:42;6.50;;;3.60;;
47866;SDS011;33628;50.806;11.586;2022-12-07T04:11:08;6.28;;;4.05;;
47866;SDS011;33628;50.806;11.586;2022-12-07T04:13:35;10.60;;;4.30;;
47866;SDS011;33628;50.806;11.586;2022-12-07T04:16:23;7.18;;;4.97;;
47866;SDS011;33628;50.806;11.586;2022-12-07T04:18:49;6.32;;;4.32;;
47866;SDS011;33628;50.806;11.586;2022-12-07T04:21:16;7.20;;;4.70;;
47866;SDS011;33628;50.806;11.586;2022-12-07T04:23:43;8.40;;;5.03;;
47866;SDS011;33628;50.806;11.586;2022-12-07T04:26:10;8.48;;;4.88;;
47866;SDS011;33628;50.806;11.586;2022-12-07T04:28:37;8.63;;;4.90;;
47866;SDS011;33628;50.806;11.586;2022-12-07T04:31:04;6.20;;;4.53;;
47866;SDS011;33628;50.806;11.586;2022-12-07T04:33:32;5.72;;;4.15;;
47866;SDS011;33628;50.806;11.586;2022-12-07T04:35:58;6.47;;;4.72;;
47866;SDS011;33628;50.806;11.586;2022-12-07T04:38:25;8.45;;;4.82;;
47866;SDS011;33628;50.806;11.586;2022-12-07T04:40:51;8.63;;;5.28;;
47866;SDS011;33628;50.806;11.586;2022-12-07T04:43:18;7.30;;;4.50;;
47866;SDS011;33628;50.806;11.586;2022-12-07T04:45:45;6.93;;;4.65;;
47866;SDS011;33628;50.806;11.586;2022-12-07T04:48:13;6.25;;;4.60;;
47866;SDS011;33628;50.806;11.586;2022-12-07T04:50:41;8.07;;;4.55;;
47866;SDS011;33628;50.806;11.586;2022-12-07T04:53:07;9.75;;;5.40;;
47866;SDS011;33628;50.806;11.586;2022-12-07T04:55:34;8.30;;;5.30;;
47866;SDS011;33628;50.806;11.586;2022-12-07T04:58:00;7.90;;;5.35;;
47866;SDS011;33628;50.806;11.586;2022-12-07T05:00:27;8.13;;;5.40;;
47866;SDS011;33628;50.806;11.586;2022-12-07T05:02:54;9.65;;;5.40;;
47866;SDS011;33628;50.806;11.586;2022-12-07T05:05:20;8.85;;;5.28;;
47866;SDS011;33628;50.806;11.586;2022-12-07T05:07:48;10.82;;;5.97;;
47866;SDS011;33628;50.806;11.586;2022-12-07T05:10:15;10.32;;;6.15;;
47866;SDS011;33628;50.806;11.586;2022-12-07T05:12:41;9.73;;;5.53;;
47866;SDS011;33628;50.806;11.586;2022-12-07T05:15:08;8.20;;;5.65;;
47866;SDS011;33628;50.806;11.586;2022-12-07T05:17:35;8.35;;;5.22;;
47866;SDS011;33628;50.806;11.586;2022-12-07T05:20:02;11.07;;;5.68;;
47866;SDS011;33628;50.806;11.586;2022-12-07T05:22:29;9.75;;;6.35;;
47866;SDS011;33628;50.806;11.586;2022-12-07T05:24:57;10.10;;;7.10;;
47866;SDS011;33628;50.806;11.586;2022-12-07T05:27:24;9.30;;;5.78;;
47866;SDS011;33628;50.806;11.586;2022-12-07T05:29:51;11.77;;;6.00;;
47866;SDS011;33628;50.806;11.586;2022-12-07T05:32:17;10.27;;;6.13;;
47866;SDS011;33628;50.806;11.586;2022-12-07T05:34:47;8.57;;;6.05;;
47866;SDS011;33628;50.806;11.586;2022-12-07T05:37:14;8.73;;;5.70;;
47866;SDS011;33628;50.806;11.586;2022-12-07T05:39:41;8.00;;;5.10;;
47866;SDS011;33628;50.806;11.586;2022-12-07T05:42:10;8.98;;;5.65;;
47866;SDS011;33628;50.806;11.586;2022-12-07T05:44:41;13.75;;;6.38;;
47866;SDS011;33628;50.806;11.586;2022-12-07T05:47:09;9.75;;;5.72;;
47866;SDS011;33628;50.806;11.586;2022-12-07T05:49:35;11.27;;;6.47;;
47866;SDS011;33628;50.806;11.586;2022-12-07T05:52:02;12.05;;;6.68;;
47866;SDS011;33628;50.806;11.586;2022-12-07T05:54:29;14.30;;;7.68;;
47866;SDS011;33628;50.806;11.586;2022-12-07T05:56:56;11.60;;;7.20;;
47866;SDS011;33628;50.806;11.586;2022-12-07T05:59:24;12.70;;;6.78;;
47866;SDS011;33628;50.806;11.586;2022-12-07T06:01:53;9.50;;;6.22;;
47866;SDS011;33628;50.806;11.586;2022-12-07T06:04:21;11.18;;;6.82;;
47866;SDS011;33628;50.806;11.586;2022-12-07T06:06:49;15.25;;;8.38;;
47866;SDS011;33628;50.806;11.586;2022-12-07T06:09:16;13.52;;;7.15;;
47866;SDS011;33628;50.806;11.586;2022-12-07T06:11:44;12.50;;;7.05;;
47866;SDS011;33628;50.806;11.586;2022-12-07T06:14:31;12.00;;;7.50;;
47866;SDS011;33628;50.806;11.586;2022-12-07T06:16:57;15.57;;;7.32;;
47866;SDS011;33628;50.806;11.586;2022-12-07T06:19:24;15.48;;;7.55;;
47866;SDS011;33628;50.806;11.586;2022-12-07T06:21:51;15.88;;;7.65;;
47866;SDS011;33628;50.806;11.586;2022-12-07T06:24:18;15.98;;;8.20;;
47866;SDS011;33628;50.806;11.586;2022-12-07T06:26:48;15.82;;;8.35;;
47866;SDS011;33628;50.806;11.586;2022-12-07T06:29:16;14.77;;;8.77;;
47866;SDS011;33628;50.806;11.586;2022-12-07T06:31:45;14.18;;;8.68;;
47866;SDS011;33628;50.806;11.586;2022-12-07T06:34:12;12.98;;;7.82;;
47866;SDS011;33628;50.806;11.586;2022-12-07T06:36:40;16.20;;;8.48;;
47866;SDS011;33628;50.806;11.586;2022-12-07T06:39:07;13.45;;;8.45;;
47866;SDS011;33628;50.806;11.586;2022-12-07T06:41:35;12.07;;;7.78;;
47866;SDS011;33628;50.806;11.586;2022-12-07T06:44:02;15.07;;;8.88;;
47866;SDS011;33628;50.806;11.586;2022-12-07T06:46:29;21.10;;;9.25;;
47866;SDS011;33628;50.806;11.586;2022-12-07T06:48:57;15.00;;;8.93;;
47866;SDS011;33628;50.806;11.586;2022-12-07T06:51:24;14.38;;;8.60;;
47866;SDS011;33628;50.806;11.586;2022-12-07T06:53:50;17.27;;;8.63;;
47866;SDS011;33628;50.806;11.586;2022-12-07T06:56:17;23.00;;;9.75;;
47866;SDS011;33628;50.806;11.586;2022-12-07T06:58:44;18.40;;;9.07;;
47866;SDS011;33628;50.806;11.586;2022-12-07T07:01:11;14.65;;;9.23;;
47866;SDS011;33628;50.806;11.586;2022-12-07T07:03:38;13.27;;;7.78;;
47866;SDS011;33628;50.806;11.586;2022-12-07T07:06:07;12.02;;;7.05;;
47866;SDS011;33628;50.806;11.586;2022-12-07T07:08:34;12.20;;;7.03;;
47866;SDS011;33628;50.806;11.586;2022-12-07T07:11:00;12.45;;;6.80;;
47866;SDS011;33628;50.806;11.586;2022-12-07T07:13:27;17.00;;;8.00;;
47866;SDS011;33628;50.806;11.586;2022-12-07T07:15:54;12.75;;;7.47;;
47866;SDS011;33628;50.806;11.586;2022-12-07T07:18:20;16.67;;;8.98;;
47866;SDS011;33628;50.806;11.586;2022-12-07T07:20:47;12.18;;;8.13;;
47866;SDS011;33628;50.806;11.586;2022-12-07T07:23:15;13.55;;;8.13;;
47866;SDS011;33628;50.806;11.586;2022-12-07T07:25:42;14.45;;;7.90;;
47866;SDS011;33628;50.806;11.586;2022-12-07T07:28:08;13.65;;;7.50;;
47866;SDS011;33628;50.806;11.586;2022-12-07T07:30:35;10.68;;;6.25;;
47866;SDS011;33628;50.806;11.586;2022-12-07T07:33:03;13.05;;;6.75;;
47866;SDS011;33628;50.806;11.586;2022-12-07T07:35:30;11.07;;;6.45;;
47866;SDS011;33628;50.806;11.586;2022-12-07T07:37:58;9.90;;;5.80;;
47866;SDS011;33628;50.806;11.586;2022-12-07T07:40:26;10.73;;;6.13;;
47866;SDS011;33628;50.806;11.586;2022-12-07T07:42:55;8.88;;;5.68;;
47866;SDS011;33628;50.806;11.586;2022-12-07T07:45:22;8.75;;;5.55;;
47866;SDS011;33628;50.806;11.586;2022-12-07T07:47:50;8.57;;;5.32;;
47866;SDS011;33628;50.806;11.586;2022-12-07T07:50:17;8.77;;;5.47;;
47866;SDS011;33628;50.806;11.586;2022-12-07T07:52:44;8.40;;;5.63;;
47866;SDS011;33628;50.806;11.586;2022-12-07T07:55:11;8.05;;;5.18;;
47866;SDS011;33628;50.806;11.586;2022-12-07T07:57:39;9.07;;;5.05;;
47866;SDS011;33628;50.806;11.586;2022-12-07T08:00:08;8.77;;;5.57;;
47866;SDS011;33628;50.806;11.586;2022-12-07T08:02:39;11.45;;;6.60;;
47866;SDS011;33628;50.806;11.586;2022-12-07T08:05:06;12.55;;;7.85;;
47866;SDS011;33628;50.806;11.586;2022-12-07T08:07:33;14.98;;;7.78;;
47866;SDS011;33628;50.806;11.586;2022-12-07T08:10:00;13.63;;;8.45;;
47866;SDS011;33628;50.806;11.586;2022-12-07T08:12:26;14.07;;;8.40;;
47866;SDS011;33628;50.806;11.586;2022-12-07T08:14:54;12.48;;;7.82;;
47866;SDS011;33628;50.806;11.586;2022-12-07T08:17:21;12.75;;;8.07;;
47866;SDS011;33628;50.806;11.586;2022-12-07T08:19:47;11.07;;;6.95;;
47866;SDS011;33628;50.806;11.586;2022-12-07T08:22:14;11.55;;;7.78;;
47866;SDS011;33628;50.806;11.586;2022-12-07T08:24:41;12.10;;;8.20;;
47866;SDS011;33628;50.806;11.586;2022-12-07T08:27:07;12.45;;;6.53;;
47866;SDS011;33628;50.806;11.586;2022-12-07T08:29:37;9.23;;;6.28;;
47866;SDS011;33628;50.806;11.586;2022-12-07T08:32:05;10.52;;;6.53;;
47866;SDS011;33628;50.806;11.586;2022-12-07T08:34:32;7.57;;;5.28;;
47866;SDS011;33628;50.806;11.586;2022-12-07T08:36:58;9.35;;;6.30;;
47866;SDS011;33628;50.806;11.586;2022-12-07T08:39:25;8.15;;;5.93;;
47866;SDS011;33628;50.806;11.586;2022-12-07T08:41:51;6.93;;;4.72;;
47866;SDS011;33628;50.806;11.586;2022-12-07T08:44:18;9.98;;;5.63;;
47866;SDS011;33628;50.806;11.586;2022-12-07T08:46:45;9.48;;;5.57;;
47866;SDS011;33628;50.806;11.586;2022-12-07T08:49:15;10.77;;;6.28;;
47866;SDS011;33628;50.806;11.586;2022-12-07T08:51:43;8.13;;;5.82;;
47866;SDS011;33628;50.806;11.586;2022-12-07T08:54:11;7.55;;;5.88;;
47866;SDS011;33628;50.806;11.586;2022-12-07T08:56:39;7.82;;;5.35;;
47866;SDS011;33628;50.806;11.586;2022-12-07T08:59:06;6.97;;;4.53;;
47866;SDS011;33628;50.806;11.586;2022-12-07T09:01:33;7.18;;;4.45;;
47866;SDS011;33628;50.806;11.586;2022-12-07T09:04:00;8.20;;;4.45;;
47866;SDS011;33628;50.806;11.586;2022-12-07T09:06:28;7.75;;;5.47;;
47866;SDS011;33628;50.806;11.586;2022-12-07T09:08:55;9.60;;;5.45;;
47866;SDS011;33628;50.806;11.586;2022-12-07T09:11:24;8.85;;;5.63;;
47866;SDS011;33628;50.806;11.586;2022-12-07T09:13:50;10.25;;;6.18;;
47866;SDS011;33628;50.806;11.586;2022-12-07T09:16:17;11.95;;;6.10;;
47866;SDS011;33628;50.806;11.586;2022-12-07T09:18:44;11.90;;;5.20;;
47866;SDS011;33628;50.806;11.586;2022-12-07T09:21:10;9.70;;;5.78;;
47866;SDS011;33628;50.806;11.586;2022-12-07T09:23:38;8.02;;;4.50;;
47866;SDS011;33628;50.806;11.586;2022-12-07T09:26:05;7.30;;;4.57;;
47866;SDS011;33628;50.806;11.586;2022-12-07T09:28:31;6.78;;;4.53;;
47866;SDS011;33628;50.806;11.586;2022-12-07T09:30:58;7.03;;;4.22;;
47866;SDS011;33628;50.806;11.586;2022-12-07T09:33:24;7.78;;;5.28;;
47866;SDS011;33628;50.806;11.586;2022-12-07T09:35:51;10.50;;;5.65;;
47866;SDS011;33628;50.806;11.586;2022-12-07T09:38:18;8.25;;;5.95;;
47866;SDS011;33628;50.806;11.586;2022-12-07T09:40:47;7.38;;;4.75;;
47866;SDS011;33628;50.806;11.586;2022-12-07T09:43:15;6.10;;;4.25;;
47866;SDS011;33628;50.806;11.586;2022-12-07T09:45:43;9.98;;;5.28;;
47866;SDS011;33628;50.806;11.586;2022-12-07T09:48:13;8.23;;;4.68;;
47866;SDS011;33628;50.806;11.586;2022-12-07T09:50:43;9.02;;;5.03;;
47866;SDS011;33628;50.806;11.586;2022-12-07T09:53:12;7.78;;;4.60;;
47866;SDS011;33628;50.806;11.586;2022-12-07T09:55:40;6.38;;;4.05;;
47866;SDS011;33628;50.806;11.586;2022-12-07T09:58:09;5.50;;;3.17;;
47866;SDS011;33628;50.806;11.586;2022-12-07T10:00:39;5.47;;;3.60;;
47866;SDS011;33628;50.806;11.586;2022-12-07T10:03:07;6.47;;;4.20;;
47866;SDS011;33628;50.806;11.586;2022-12-07T10:05:35;6.22;;;3.78;;
47866;SDS011;33628;50.806;11.586;2022-12-07T10:08:03;6.45;;;3.80;;
47866;SDS011;33628;50.806;11.586;2022-12-07T10:10:30;6.95;;;3.85;;
47866;SDS011;33628;50.806;11.586;2022-12-07T10:12:58;7.13;;;3.25;;
47866;SDS011;33628;50.806;11.586;2022-12-07T10:15:44;4.43;;;2.22;;
47866;SDS011;33628;50.806;11.586;2022-12-07T10:20:47;3.63;;;2.13;;
47866;SDS011;33628;50.806;11.586;2022-12-07T10:23:14;5.88;;;2.67;;
47866;SDS011;33628;50.806;11.586;2022-12-07T10:25:42;3.65;;;2.15;;
47866;SDS011;33628;50.806;11.586;2022-12-07T10:28:13;6.07;;;2.70;;
47866;SDS011;33628;50.806;11.586;2022-12-07T10:30:53;4.68;;;2.63;;
47866;SDS011;33628;50.806;11.586;2022-12-07T10:33:28;5.38;;;2.47;;
47866;SDS011;33628;50.806;11.586;2022-12-07T10:35:57;9.73;;;2.88;;
47866;SDS011;33628;50.806;11.586;2022-12-07T10:38:24;7.22;;;2.70;;
47866;SDS011;33628;50.806;11.586;2022-12-07T10:41:02;6.85;;;2.25;;
47866;SDS011;33628;50.806;11.586;2022-12-07T10:43:29;3.63;;;2.50;;
47866;SDS011;33628;50.806;11.586;2022-12-07T10:46:13;8.50;;;2.83;;
47866;SDS011;33628;50.806;11.586;2022-12-07T10:51:36;5.35;;;2.38;;
47866;SDS011;33628;50.806;11.586;2022-12-07T10:54:09;5.30;;;2.22;;
47866;SDS011;33628;50.806;11.586;2022-12-07T10:56:44;3.75;;;2.10;;
47866;SDS011;33628;50.806;11.586;2022-12-07T10:59:29;5.90;;;2.25;;
47866;SDS011;33628;50.806;11.586;2022-12-07T11:02:20;3.03;;;2.08;;
47866;SDS011;33628;50.806;11.586;2022-12-07T11:04:58;7.18;;;2.20;;
47866;SDS011;33628;50.806;11.586;2022-12-07T11:07:33;4.28;;;2.00;;
47866;SDS011;33628;50.806;11.586;2022-12-07T11:10:07;5.28;;;2.40;;
47866;SDS011;33628;50.806;11.586;2022-12-07T11:15:49;3.65;;;1.90;;
47866;SDS011;33628;50.806;11.586;2022-12-07T11:18:24;5.10;;;2.30;;
47866;SDS011;33628;50.806;11.586;2022-12-07T11:20:55;5.32;;;2.42;;
47866;SDS011;33628;50.806;11.586;2022-12-07T11:23:27;6.13;;;2.10;;
47866;SDS011;33628;50.806;11.586;2022-12-07T11:26:02;3.17;;;2.20;;
47866;SDS011;33628;50.806;11.586;2022-12-07T11:28:40;4.47;;;2.53;;
47866;SDS011;33628;50.806;11.586;2022-12-07T11:31:17;6.38;;;2.78;;
47866;SDS011;33628;50.806;11.586;2022-12-07T11:33:51;5.15;;;1.80;;
47866;SDS011;33628;50.806;11.586;2022-12-07T11:36:28;5.95;;;2.60;;
47866;SDS011;33628;50.806;11.586;2022-12-07T11:39:00;4.63;;;2.50;;
47866;SDS011;33628;50.806;11.586;2022-12-07T11:41:29;3.28;;;1.63;;
47866;SDS011;33628;50.806;11.586;2022-12-07T11:44:04;4.00;;;1.60;;
47866;SDS011;33628;50.806;11.586;2022-12-07T11:46:35;3.53;;;2.08;;
47866;SDS011;33628;50.806;11.586;2022-12-07T11:49:12;7.88;;;2.03;;
47866;SDS011;33628;50.806;11.586;2022-12-07T11:51:40;2.78;;;1.63;;
47866;SDS011;33628;50.806;11.586;2022-12-07T11:54:11;4.75;;;1.85;;
47866;SDS011;33628;50.806;11.586;2022-12-07T11:56:38;3.38;;;2.03;;
47866;SDS011;33628;50.806;11.586;2022-12-07T11:59:08;3.50;;;1.85;;
47866;SDS011;33628;50.806;11.586;2022-12-07T12:01:47;3.95;;;1.50;;
47866;SDS011;33628;50.806;11.586;2022-12-07T12:04:25;5.50;;;2.00;;
47866;SDS011;33628;50.806;11.586;2022-12-07T12:06:53;4.70;;;1.67;;
47866;SDS011;33628;50.806;11.586;2022-12-07T12:09:21;4.18;;;1.98;;
47866;SDS011;33628;50.806;11.586;2022-12-07T12:11:58;3.67;;;1.80;;
47866;SDS011;33628;50.806;11.586;2022-12-07T12:18:23;3.42;;;1.70;;
47866;SDS011;33628;50.806;11.586;2022-12-07T12:20:58;4.30;;;1.40;;
47866;SDS011;33628;50.806;11.586;2022-12-07T12:23:30;4.88;;;1.50;;
47866;SDS011;33628;50.806;11.586;2022-12-07T12:26:02;2.92;;;1.90;;
47866;SDS011;33628;50.806;11.586;2022-12-07T12:28:31;4.78;;;1.95;;
47866;SDS011;33628;50.806;11.586;2022-12-07T12:31:04;3.75;;;1.15;;
47866;SDS011;33628;50.806;11.586;2022-12-07T12:33:32;7.97;;;2.35;;
47866;SDS011;33628;50.806;11.586;2022-12-07T12:36:20;6.55;;;1.60;;
47866;SDS011;33628;50.806;11.586;2022-12-07T12:38:48;7.00;;;1.67;;
47866;SDS011;33628;50.806;11.586;2022-12-07T12:43:57;5.63;;;1.58;;
47866;SDS011;33628;50.806;11.586;2022-12-07T12:55:13;2.75;;;1.50;;
47866;SDS011;33628;50.806;11.586;2022-12-07T12:57:47;4.32;;;1.45;;
47866;SDS011;33628;50.806;11.586;2022-12-07T13:00:17;2.67;;;1.40;;
47866;SDS011;33628;50.806;11.586;2022-12-07T13:02:48;2.58;;;1.30;;
47866;SDS011;33628;50.806;11.586;2022-12-07T13:05:16;1.50;;;1.20;;
47866;SDS011;33628;50.806;11.586;2022-12-07T13:10:43;3.65;;;1.23;;
47866;SDS011;33628;50.806;11.586;2022-12-07T13:15:52;3.15;;;1.40;;
47866;SDS011;33628;50.806;11.586;2022-12-07T13:18:23;6.55;;;2.03;;
47866;SDS011;33628;50.806;11.586;2022-12-07T13:20:52;10.73;;;5.40;;
47866;SDS011;33628;50.806;11.586;2022-12-07T13:23:19;2.15;;;1.50;;
47866;SDS011;33628;50.806;11.586;2022-12-07T13:25:51;9.35;;;5.63;;
47866;SDS011;33628;50.806;11.586;2022-12-07T13:28:18;5.63;;;1.60;;
47866;SDS011;33628;50.806;11.586;2022-12-07T13:33:32;3.97;;;1.50;;
47866;SDS011;33628;50.806;11.586;2022-12-07T13:36:00;7.25;;;1.80;;
47866;SDS011;33628;50.806;11.586;2022-12-07T13:38:28;4.35;;;2.00;;
47866;SDS011;33628;50.806;11.586;2022-12-07T13:41:04;5.32;;;1.30;;
47866;SDS011;33628;50.806;11.586;2022-12-07T13:43:41;4.90;;;1.63;;
47866;SDS011;33628;50.806;11.586;2022-12-07T13:46:08;1.85;;;1.00;;
47866;SDS011;33628;50.806;11.586;2022-12-07T13:48:43;3.35;;;1.50;;
47866;SDS011;33628;50.806;11.586;2022-12-07T13:51:16;5.57;;;2.28;;
47866;SDS011;33628;50.806;11.586;2022-12-07T13:53:45;4.20;;;1.85;;
47866;SDS011;33628;50.806;11.586;2022-12-07T13:56:14;3.80;;;1.60;;
47866;SDS011;33628;50.806;11.586;2022-12-07T13:58:42;6.32;;;2.05;;
47866;SDS011;33628;50.806;11.586;2022-12-07T14:01:09;2.97;;;1.40;;
47866;SDS011;33628;50.806;11.586;2022-12-07T14:03:36;4.43;;;1.67;;
47866;SDS011;33628;50.806;11.586;2022-12-07T14:06:14;4.78;;;1.92;;
47866;SDS011;33628;50.806;11.586;2022-12-07T14:08:41;3.25;;;2.13;;
47866;SDS011;33628;50.806;11.586;2022-12-07T14:11:09;3.80;;;1.40;;
47866;SDS011;33628;50.806;11.586;2022-12-07T14:13:44;8.15;;;1.50;;
47866;SDS011;33628;50.806;11.586;2022-12-07T14:16:18;3.53;;;2.03;;
47866;SDS011;33628;50.806;11.586;2022-12-07T14:18:47;3.03;;;1.60;;
47866;SDS011;33628;50.806;11.586;2022-12-07T14:21:15;11.38;;;3.40;;
47866;SDS011;33628;50.806;11.586;2022-12-07T14:23:43;5.50;;;2.97;;
47866;SDS011;33628;50.806;11.586;2022-12-07T14:26:11;3.20;;;1.80;;
47866;SDS011;33628;50.806;11.586;2022-12-07T14:28:38;13.77;;;6.22;;
47866;SDS011;33628;50.806;11.586;2022-12-07T14:31:10;5.72;;;2.58;;
47866;SDS011;33628;50.806;11.586;2022-12-07T14:33:37;6.30;;;2.67;;
47866;SDS011;33628;50.806;11.586;2022-12-07T14:36:04;5.80;;;2.25;;
47866;SDS011;33628;50.806;11.586;2022-12-07T14:38:31;47.60;;;21.13;;
47866;SDS011;33628;50.806;11.586;2022-12-07T14:40:58;4.60;;;2.05;;
47866;SDS011;33628;50.806;11.586;2022-12-07T14:43:45;10.45;;;3.50;;
47866;SDS011;33628;50.806;11.586;2022-12-07T14:46:13;5.10;;;1.75;;
47866;SDS011;33628;50.806;11.586;2022-12-07T14:48:39;7.88;;;3.47;;
47866;SDS011;33628;50.806;11.586;2022-12-07T14:51:07;6.05;;;2.80;;
47866;SDS011;33628;50.806;11.586;2022-12-07T14:53:36;10.57;;;4.60;;
47866;SDS011;33628;50.806;11.586;2022-12-07T14:56:06;6.47;;;3.85;;
47866;SDS011;33628;50.806;11.586;2022-12-07T14:58:33;5.35;;;2.10;;
47866;SDS011;33628;50.806;11.586;2022-12-07T15:00:59;7.75;;;3.38;;
47866;SDS011;33628;50.806;11.586;2022-12-07T15:03:28;13.35;;;5.72;;
47866;SDS011;33628;50.806;11.586;2022-12-07T15:05:55;34.95;;;16.42;;
47866;SDS011;33628;50.806;11.586;2022-12-07T15:08:22;21.73;;;8.70;;
47866;SDS011;33628;50.806;11.586;2022-12-07T15:10:49;23.13;;;11.48;;
47866;SDS011;33628;50.806;11.586;2022-12-07T15:13:15;15.50;;;6.55;;
47866;SDS011;33628;50.806;11.586;2022-12-07T15:16:01;13.80;;;4.85;;
47866;SDS011;33628;50.806;11.586;2022-12-07T15:18:29;8.82;;;3.38;;